Main page
METAR-TAF:

METAR-TAF

Airports :

Mytilene International Airport

Mytilene-Lesbos, Greece

latitude: 39-04N, longitude: 026-36E, elevation: 3 m

Current weather observation

The report was made 28 minutes ago, at 13:20 UTC
Wind 7 kt from the Southwest
Temperature 26°C
Humidity 42%
Pressure 1013 hPa
Visibility 10 km or more
no clouds below 1500 m and no cumulonimbus

METAR: LGMT 201320Z 23007KT CAVOK 26/12 Q1013

Time: 16:48 (13:48 UTC)

Forecast

The report was made 2 hours and 48 minutes ago, at 11:00 UTC
Forecast valid from 20 at 12 UTC to 20 at 21 UTC
Wind 10 kt from the South
Visibility 10 km or more
Few clouds at a height of 2500 ft
Scattered clouds at a height of 5000 ft
Temporary
from 20 at 12 UTC to 20 at 18 UTC
Wind 10 kt from the South with gusts up to 20 kt
Few clouds at a height of 2500 ft
Broken clouds at a height of 5000 ft

TAF: LGMT 201100Z 2012/2021 18010KT 9999 FEW025 SCT050 TEMPO 2012/2018 19010G20KT FEW025 BKN050

Weather observations and forecasts of more than 4000 airports (METAR and TAF reports).

The available stations are represented by yellow and red dots on the map.

Hover mouse over dot to see the name of the station.

Then click to see weather observations and forecasts.

To change the map : click on the green buttons with a black cross to zoom in, on the green button with a dash to zoom out, or on the green arrows for adjacent maps.


METAR-TAF: